sensor_id;sensor_type;location;lat;lon;timestamp;temperature;humidity
54680;DHT22;40578;53.178;5.846;2022-09-02T00:01:42;15.00;99.90
54680;DHT22;40578;53.178;5.846;2022-09-02T00:04:18;15.00;99.90
54680;DHT22;40578;53.178;5.846;2022-09-02T00:06:45;15.00;99.90
54680;DHT22;40578;53.178;5.846;2022-09-02T00:09:13;14.90;99.90
54680;DHT22;40578;53.178;5.846;2022-09-02T00:11:40;14.90;99.90
54680;DHT22;40578;53.178;5.846;2022-09-02T00:14:11;14.90;99.90
54680;DHT22;40578;53.178;5.846;2022-09-02T00:16:39;14.80;99.90
54680;DHT22;40578;53.178;5.846;2022-09-02T00:19:06;14.80;99.90
54680;DHT22;40578;53.178;5.846;2022-09-02T00:21:32;14.90;99.90
54680;DHT22;40578;53.178;5.846;2022-09-02T00:24:00;14.80;99.90
54680;DHT22;40578;53.178;5.846;2022-09-02T00:26:26;14.80;99.90
54680;DHT22;40578;53.178;5.846;2022-09-02T00:28:52;14.80;99.90
54680;DHT22;40578;53.178;5.846;2022-09-02T00:31:18;14.90;99.90
54680;DHT22;40578;53.178;5.846;2022-09-02T00:33:44;14.80;99.90
54680;DHT22;40578;53.178;5.846;2022-09-02T00:36:10;14.80;99.90
54680;DHT22;40578;53.178;5.846;2022-09-02T00:38:36;14.70;99.90
54680;DHT22;40578;53.178;5.846;2022-09-02T00:41:06;14.70;99.90
54680;DHT22;40578;53.178;5.846;2022-09-02T00:46:18;14.70;98.90
54680;DHT22;40578;53.178;5.846;2022-09-02T00:48:51;14.70;86.50
54680;DHT22;40578;53.178;5.846;2022-09-02T00:51:18;14.70;87.80
54680;DHT22;40578;53.178;5.846;2022-09-02T00:53:45;14.70;84.40
54680;DHT22;40578;53.178;5.846;2022-09-02T00:56:21;14.70;76.50
54680;DHT22;40578;53.178;5.846;2022-09-02T00:58:49;14.60;81.20
54680;DHT22;40578;53.178;5.846;2022-09-02T01:01:15;14.80;91.60
54680;DHT22;40578;53.178;5.846;2022-09-02T01:03:41;14.60;88.30
54680;DHT22;40578;53.178;5.846;2022-09-02T01:06:10;14.60;97.40
54680;DHT22;40578;53.178;5.846;2022-09-02T01:08:43;14.60;98.50
54680;DHT22;40578;53.178;5.846;2022-09-02T01:11:10;14.60;99.90
54680;DHT22;40578;53.178;5.846;2022-09-02T01:13:39;14.50;99.90
54680;DHT22;40578;53.178;5.846;2022-09-02T01:16:23;14.50;99.90
54680;DHT22;40578;53.178;5.846;2022-09-02T01:18:52;14.50;99.90
54680;DHT22;40578;53.178;5.846;2022-09-02T01:21:18;14.50;99.90
54680;DHT22;40578;53.178;5.846;2022-09-02T01:23:45;14.50;99.90
54680;DHT22;40578;53.178;5.846;2022-09-02T01:26:12;14.50;99.90
54680;DHT22;40578;53.178;5.846;2022-09-02T01:28:38;14.40;99.90
54680;DHT22;40578;53.178;5.846;2022-09-02T01:31:04;14.50;99.90
54680;DHT22;40578;53.178;5.846;2022-09-02T01:33:30;14.40;99.90
54680;DHT22;40578;53.178;5.846;2022-09-02T01:35:56;14.40;99.90
54680;DHT22;40578;53.178;5.846;2022-09-02T01:38:23;14.30;99.90
54680;DHT22;40578;53.178;5.846;2022-09-02T01:40:49;14.30;99.90
54680;DHT22;40578;53.178;5.846;2022-09-02T01:43:21;14.30;99.90
54680;DHT22;40578;53.178;5.846;2022-09-02T01:45:48;14.30;99.90
54680;DHT22;40578;53.178;5.846;2022-09-02T01:48:14;14.20;99.90
54680;DHT22;40578;53.178;5.846;2022-09-02T01:50:43;14.20;99.90
54680;DHT22;40578;53.178;5.846;2022-09-02T01:53:10;14.20;99.90
54680;DHT22;40578;53.178;5.846;2022-09-02T01:55:37;14.20;99.90
54680;DHT22;40578;53.178;5.846;2022-09-02T01:58:02;14.20;99.90
54680;DHT22;40578;53.178;5.846;2022-09-02T02:00:28;14.10;99.90
54680;DHT22;40578;53.178;5.846;2022-09-02T02:02:55;14.10;99.90
54680;DHT22;40578;53.178;5.846;2022-09-02T02:05:21;14.10;99.90
54680;DHT22;40578;53.178;5.846;2022-09-02T02:07:47;14.10;99.90
54680;DHT22;40578;53.178;5.846;2022-09-02T02:10:14;14.00;99.90
54680;DHT22;40578;53.178;5.846;2022-09-02T02:12:41;14.10;99.90
54680;DHT22;40578;53.178;5.846;2022-09-02T02:15:12;14.00;99.90
54680;DHT22;40578;53.178;5.846;2022-09-02T02:17:38;14.00;99.90
54680;DHT22;40578;53.178;5.846;2022-09-02T02:20:06;14.00;99.90
54680;DHT22;40578;53.178;5.846;2022-09-02T02:22:33;14.00;99.90
54680;DHT22;40578;53.178;5.846;2022-09-02T02:24:59;14.00;99.90
54680;DHT22;40578;53.178;5.846;2022-09-02T02:27:24;13.90;99.90
54680;DHT22;40578;53.178;5.846;2022-09-02T02:29:50;13.90;99.90
54680;DHT22;40578;53.178;5.846;2022-09-02T02:32:16;13.90;99.90
54680;DHT22;40578;53.178;5.846;2022-09-02T02:34:45;14.00;99.90
54680;DHT22;40578;53.178;5.846;2022-09-02T02:37:11;13.90;99.90
54680;DHT22;40578;53.178;5.846;2022-09-02T02:39:42;14.20;99.90
54680;DHT22;40578;53.178;5.846;2022-09-02T02:42:08;13.90;99.90
54680;DHT22;40578;53.178;5.846;2022-09-02T02:44:34;13.90;99.90
54680;DHT22;40578;53.178;5.846;2022-09-02T02:47:00;13.90;99.90
54680;DHT22;40578;53.178;5.846;2022-09-02T02:49:26;13.90;99.90
54680;DHT22;40578;53.178;5.846;2022-09-02T02:51:52;13.90;99.90
54680;DHT22;40578;53.178;5.846;2022-09-02T02:54:19;13.80;99.90
54680;DHT22;40578;53.178;5.846;2022-09-02T02:56:45;13.80;99.90
54680;DHT22;40578;53.178;5.846;2022-09-02T02:59:13;13.70;99.90
54680;DHT22;40578;53.178;5.846;2022-09-02T03:01:39;13.70;99.90
54680;DHT22;40578;53.178;5.846;2022-09-02T03:04:05;13.70;99.90
54680;DHT22;40578;53.178;5.846;2022-09-02T03:06:30;13.70;99.90
54680;DHT22;40578;53.178;5.846;2022-09-02T03:08:56;13.70;99.90
54680;DHT22;40578;53.178;5.846;2022-09-02T03:11:23;13.80;99.90
54680;DHT22;40578;53.178;5.846;2022-09-02T03:13:50;13.70;99.90
54680;DHT22;40578;53.178;5.846;2022-09-02T03:16:16;13.70;99.90
54680;DHT22;40578;53.178;5.846;2022-09-02T03:18:45;13.70;99.90
54680;DHT22;40578;53.178;5.846;2022-09-02T03:21:10;13.70;99.90
54680;DHT22;40578;53.178;5.846;2022-09-02T03:23:37;13.70;99.90
54680;DHT22;40578;53.178;5.846;2022-09-02T03:26:08;13.70;99.90
54680;DHT22;40578;53.178;5.846;2022-09-02T03:28:35;13.70;99.90
54680;DHT22;40578;53.178;5.846;2022-09-02T03:31:01;13.70;99.90
54680;DHT22;40578;53.178;5.846;2022-09-02T03:33:26;13.60;99.90
54680;DHT22;40578;53.178;5.846;2022-09-02T03:35:52;13.60;99.90
54680;DHT22;40578;53.178;5.846;2022-09-02T03:38:17;13.70;99.90
54680;DHT22;40578;53.178;5.846;2022-09-02T03:40:43;13.60;99.90
54680;DHT22;40578;53.178;5.846;2022-09-02T03:43:10;13.60;99.90
54680;DHT22;40578;53.178;5.846;2022-09-02T03:45:35;14.00;99.90
54680;DHT22;40578;53.178;5.846;2022-09-02T03:48:03;13.60;99.90
54680;DHT22;40578;53.178;5.846;2022-09-02T03:50:30;13.50;99.90
54680;DHT22;40578;53.178;5.846;2022-09-02T03:52:58;13.50;99.90
54680;DHT22;40578;53.178;5.846;2022-09-02T03:55:24;13.60;99.90
54680;DHT22;40578;53.178;5.846;2022-09-02T03:57:50;13.40;99.90
54680;DHT22;40578;53.178;5.846;2022-09-02T04:00:19;13.40;99.90
54680;DHT22;40578;53.178;5.846;2022-09-02T04:02:45;13.40;99.90
54680;DHT22;40578;53.178;5.846;2022-09-02T04:05:12;13.30;99.90
54680;DHT22;40578;53.178;5.846;2022-09-02T04:07:38;13.40;99.90
54680;DHT22;40578;53.178;5.846;2022-09-02T04:10:05;13.30;99.90
54680;DHT22;40578;53.178;5.846;2022-09-02T04:12:34;13.20;99.90
54680;DHT22;40578;53.178;5.846;2022-09-02T04:15:00;13.20;99.90
54680;DHT22;40578;53.178;5.846;2022-09-02T04:17:27;13.10;99.90
54680;DHT22;40578;53.178;5.846;2022-09-02T04:19:53;13.10;99.90
54680;DHT22;40578;53.178;5.846;2022-09-02T04:22:19;13.00;99.90
54680;DHT22;40578;53.178;5.846;2022-09-02T04:24:44;13.00;99.90
54680;DHT22;40578;53.178;5.846;2022-09-02T04:27:10;13.00;99.90
54680;DHT22;40578;53.178;5.846;2022-09-02T04:29:36;13.00;99.90
54680;DHT22;40578;53.178;5.846;2022-09-02T04:32:01;13.00;99.90
54680;DHT22;40578;53.178;5.846;2022-09-02T04:34:27;12.90;99.90
54680;DHT22;40578;53.178;5.846;2022-09-02T04:36:53;12.90;99.90
54680;DHT22;40578;53.178;5.846;2022-09-02T04:39:19;12.90;99.90
54680;DHT22;40578;53.178;5.846;2022-09-02T04:41:45;12.90;99.90
54680;DHT22;40578;53.178;5.846;2022-09-02T04:44:10;12.80;99.90
54680;DHT22;40578;53.178;5.846;2022-09-02T04:46:36;12.90;99.90
54680;DHT22;40578;53.178;5.846;2022-09-02T04:49:03;12.90;99.90
54680;DHT22;40578;53.178;5.846;2022-09-02T04:51:29;12.80;99.90
54680;DHT22;40578;53.178;5.846;2022-09-02T04:53:55;12.90;99.90
54680;DHT22;40578;53.178;5.846;2022-09-02T04:56:26;12.90;99.90
54680;DHT22;40578;53.178;5.846;2022-09-02T04:58:52;12.80;99.90
54680;DHT22;40578;53.178;5.846;2022-09-02T05:01:19;12.90;99.90
54680;DHT22;40578;53.178;5.846;2022-09-02T05:03:46;13.10;99.90
54680;DHT22;40578;53.178;5.846;2022-09-02T05:06:18;12.90;99.90
54680;DHT22;40578;53.178;5.846;2022-09-02T05:08:44;12.90;99.90
54680;DHT22;40578;53.178;5.846;2022-09-02T05:11:15;12.90;99.90
54680;DHT22;40578;53.178;5.846;2022-09-02T05:13:46;12.80;99.90
54680;DHT22;40578;53.178;5.846;2022-09-02T05:16:21;12.80;99.90
54680;DHT22;40578;53.178;5.846;2022-09-02T05:18:48;12.80;99.90
54680;DHT22;40578;53.178;5.846;2022-09-02T05:21:14;12.90;99.90
54680;DHT22;40578;53.178;5.846;2022-09-02T05:23:41;12.90;99.90
54680;DHT22;40578;53.178;5.846;2022-09-02T05:26:09;12.90;99.90
54680;DHT22;40578;53.178;5.846;2022-09-02T05:28:35;12.90;99.90
54680;DHT22;40578;53.178;5.846;2022-09-02T05:31:09;12.90;99.90
54680;DHT22;40578;53.178;5.846;2022-09-02T05:33:39;12.90;99.90
54680;DHT22;40578;53.178;5.846;2022-09-02T05:36:07;13.00;99.90
54680;DHT22;40578;53.178;5.846;2022-09-02T05:38:33;13.00;99.90
54680;DHT22;40578;53.178;5.846;2022-09-02T05:41:04;13.00;99.90
54680;DHT22;40578;53.178;5.846;2022-09-02T05:43:31;13.10;99.90
54680;DHT22;40578;53.178;5.846;2022-09-02T05:45:57;13.10;99.90
54680;DHT22;40578;53.178;5.846;2022-09-02T05:48:24;13.10;99.90
54680;DHT22;40578;53.178;5.846;2022-09-02T05:51:08;13.10;99.90
54680;DHT22;40578;53.178;5.846;2022-09-02T05:53:34;13.20;99.90
54680;DHT22;40578;53.178;5.846;2022-09-02T05:56:03;13.20;99.90
54680;DHT22;40578;53.178;5.846;2022-09-02T05:58:29;13.30;99.90
54680;DHT22;40578;53.178;5.846;2022-09-02T06:00:56;13.30;99.90
54680;DHT22;40578;53.178;5.846;2022-09-02T06:03:22;13.40;99.90
54680;DHT22;40578;53.178;5.846;2022-09-02T06:05:58;13.50;99.90
54680;DHT22;40578;53.178;5.846;2022-09-02T06:08:24;13.50;99.90
54680;DHT22;40578;53.178;5.846;2022-09-02T06:10:50;13.60;99.90
54680;DHT22;40578;53.178;5.846;2022-09-02T06:13:15;13.80;99.90
54680;DHT22;40578;53.178;5.846;2022-09-02T06:15:47;13.80;99.90
54680;DHT22;40578;53.178;5.846;2022-09-02T06:18:13;13.80;99.90
54680;DHT22;40578;53.178;5.846;2022-09-02T06:20:41;13.90;99.90
54680;DHT22;40578;53.178;5.846;2022-09-02T06:23:07;13.90;99.90
54680;DHT22;40578;53.178;5.846;2022-09-02T06:25:41;14.00;99.90
54680;DHT22;40578;53.178;5.846;2022-09-02T06:28:07;14.20;99.90
54680;DHT22;40578;53.178;5.846;2022-09-02T06:30:33;14.10;99.90
54680;DHT22;40578;53.178;5.846;2022-09-02T06:33:00;14.20;99.90
54680;DHT22;40578;53.178;5.846;2022-09-02T06:35:29;14.30;99.90
54680;DHT22;40578;53.178;5.846;2022-09-02T06:37:57;14.30;99.90
54680;DHT22;40578;53.178;5.846;2022-09-02T06:40:22;14.30;99.90
54680;DHT22;40578;53.178;5.846;2022-09-02T06:42:48;14.50;91.90
54680;DHT22;40578;53.178;5.846;2022-09-02T06:45:14;14.50;86.90
54680;DHT22;40578;53.178;5.846;2022-09-02T06:47:40;14.60;99.90
54680;DHT22;40578;53.178;5.846;2022-09-02T06:50:07;14.80;65.90
54680;DHT22;40578;53.178;5.846;2022-09-02T06:52:33;14.70;81.60
54680;DHT22;40578;53.178;5.846;2022-09-02T06:54:59;14.80;74.20
54680;DHT22;40578;53.178;5.846;2022-09-02T06:57:24;14.80;47.30
54680;DHT22;40578;53.178;5.846;2022-09-02T06:59:50;15.00;25.70
54680;DHT22;40578;53.178;5.846;2022-09-02T07:02:16;15.10;11.50
54680;DHT22;40578;53.178;5.846;2022-09-02T07:04:42;15.20;22.70
54680;DHT22;40578;53.178;5.846;2022-09-02T07:07:26;15.20;2.40
54680;DHT22;40578;53.178;5.846;2022-09-02T07:09:52;15.30;19.70
54680;DHT22;40578;53.178;5.846;2022-09-02T07:12:17;15.40;1.00
54680;DHT22;40578;53.178;5.846;2022-09-02T07:14:44;15.50;1.00
54680;DHT22;40578;53.178;5.846;2022-09-02T07:17:12;15.50;1.00
54680;DHT22;40578;53.178;5.846;2022-09-02T07:19:47;15.60;1.00
54680;DHT22;40578;53.178;5.846;2022-09-02T07:22:13;16.40;1.00
54680;DHT22;40578;53.178;5.846;2022-09-02T07:24:38;15.80;1.00
54680;DHT22;40578;53.178;5.846;2022-09-02T07:27:04;15.90;1.00
54680;DHT22;40578;53.178;5.846;2022-09-02T07:29:30;15.90;1.00
54680;DHT22;40578;53.178;5.846;2022-09-02T07:31:57;16.00;1.00
54680;DHT22;40578;53.178;5.846;2022-09-02T07:34:23;16.10;1.00
54680;DHT22;40578;53.178;5.846;2022-09-02T07:36:49;16.20;1.00
54680;DHT22;40578;53.178;5.846;2022-09-02T07:39:16;16.20;1.00
54680;DHT22;40578;53.178;5.846;2022-09-02T07:41:44;16.50;1.00
54680;DHT22;40578;53.178;5.846;2022-09-02T07:44:10;16.40;1.00
54680;DHT22;40578;53.178;5.846;2022-09-02T07:46:36;16.50;1.00
54680;DHT22;40578;53.178;5.846;2022-09-02T07:49:05;16.50;1.00
54680;DHT22;40578;53.178;5.846;2022-09-02T07:51:31;16.60;99.90
54680;DHT22;40578;53.178;5.846;2022-09-02T07:53:58;16.70;1.00
54680;DHT22;40578;53.178;5.846;2022-09-02T07:56:24;16.90;1.00
54680;DHT22;40578;53.178;5.846;2022-09-02T07:58:50;16.90;99.90
54680;DHT22;40578;53.178;5.846;2022-09-02T08:01:17;17.00;99.90
54680;DHT22;40578;53.178;5.846;2022-09-02T08:03:44;17.00;99.90
54680;DHT22;40578;53.178;5.846;2022-09-02T08:06:11;17.10;99.90
54680;DHT22;40578;53.178;5.846;2022-09-02T08:08:38;17.10;99.90
54680;DHT22;40578;53.178;5.846;2022-09-02T08:11:05;17.20;99.90
54680;DHT22;40578;53.178;5.846;2022-09-02T08:13:31;17.40;99.90
54680;DHT22;40578;53.178;5.846;2022-09-02T08:15:57;17.40;99.90
54680;DHT22;40578;53.178;5.846;2022-09-02T08:18:23;17.40;99.90
54680;DHT22;40578;53.178;5.846;2022-09-02T08:20:49;17.50;99.90
54680;DHT22;40578;53.178;5.846;2022-09-02T08:23:15;17.60;99.90
54680;DHT22;40578;53.178;5.846;2022-09-02T08:25:41;17.60;99.90
54680;DHT22;40578;53.178;5.846;2022-09-02T08:28:07;17.70;99.90
54680;DHT22;40578;53.178;5.846;2022-09-02T08:30:33;17.80;99.90
54680;DHT22;40578;53.178;5.846;2022-09-02T08:32:59;17.80;99.90
54680;DHT22;40578;53.178;5.846;2022-09-02T08:35:25;17.90;99.90
54680;DHT22;40578;53.178;5.846;2022-09-02T08:37:51;18.00;99.90
54680;DHT22;40578;53.178;5.846;2022-09-02T08:40:19;18.10;99.90
54680;DHT22;40578;53.178;5.846;2022-09-02T08:42:51;18.10;99.90
54680;DHT22;40578;53.178;5.846;2022-09-02T08:45:32;18.20;99.90
54680;DHT22;40578;53.178;5.846;2022-09-02T08:48:35;18.20;99.90
54680;DHT22;40578;53.178;5.846;2022-09-02T08:51:15;18.40;99.90
54680;DHT22;40578;53.178;5.846;2022-09-02T08:53:44;18.40;97.40
54680;DHT22;40578;53.178;5.846;2022-09-02T08:56:14;18.60;59.00
54680;DHT22;40578;53.178;5.846;2022-09-02T08:58:43;18.60;26.60
54680;DHT22;40578;53.178;5.846;2022-09-02T09:01:44;18.70;48.60
54680;DHT22;40578;53.178;5.846;2022-09-02T09:04:45;18.70;1.00
54680;DHT22;40578;53.178;5.846;2022-09-02T09:10:05;18.90;1.00
54680;DHT22;40578;53.178;5.846;2022-09-02T09:15:50;19.00;1.00
54680;DHT22;40578;53.178;5.846;2022-09-02T09:18:20;19.00;13.70
54680;DHT22;40578;53.178;5.846;2022-09-02T09:20:48;19.10;25.20
54680;DHT22;40578;53.178;5.846;2022-09-02T09:23:27;19.30;1.00
54680;DHT22;40578;53.178;5.846;2022-09-02T09:25:58;19.30;1.00
54680;DHT22;40578;53.178;5.846;2022-09-02T09:28:28;19.40;1.00
54680;DHT22;40578;53.178;5.846;2022-09-02T09:30:53;19.40;1.00
54680;DHT22;40578;53.178;5.846;2022-09-02T09:33:21;19.50;1.00
54680;DHT22;40578;53.178;5.846;2022-09-02T09:35:50;19.60;1.00
54680;DHT22;40578;53.178;5.846;2022-09-02T09:38:28;19.70;1.00
54680;DHT22;40578;53.178;5.846;2022-09-02T09:41:15;19.80;1.00
54680;DHT22;40578;53.178;5.846;2022-09-02T09:43:42;19.90;99.90
54680;DHT22;40578;53.178;5.846;2022-09-02T09:46:29;19.90;99.90
54680;DHT22;40578;53.178;5.846;2022-09-02T09:48:56;20.00;1.00
54680;DHT22;40578;53.178;5.846;2022-09-02T09:51:22;20.00;1.00
54680;DHT22;40578;53.178;5.846;2022-09-02T09:53:48;20.10;1.00
54680;DHT22;40578;53.178;5.846;2022-09-02T09:58:47;20.10;99.90
54680;DHT22;40578;53.178;5.846;2022-09-02T10:01:18;20.20;99.90
54680;DHT22;40578;53.178;5.846;2022-09-02T10:04:09;20.20;99.90
54680;DHT22;40578;53.178;5.846;2022-09-02T10:06:41;20.30;99.90
54680;DHT22;40578;53.178;5.846;2022-09-02T10:12:00;20.30;99.90
54680;DHT22;40578;53.178;5.846;2022-09-02T10:14:46;20.40;99.90
54680;DHT22;40578;53.178;5.846;2022-09-02T10:19:58;20.60;99.90
54680;DHT22;40578;53.178;5.846;2022-09-02T10:31:06;20.70;99.90
54680;DHT22;40578;53.178;5.846;2022-09-02T10:33:43;20.80;99.90
54680;DHT22;40578;53.178;5.846;2022-09-02T10:36:25;20.90;99.90
54680;DHT22;40578;53.178;5.846;2022-09-02T10:38:53;20.90;99.90
54680;DHT22;40578;53.178;5.846;2022-09-02T10:41:36;20.90;99.90
54680;DHT22;40578;53.178;5.846;2022-09-02T10:46:53;20.90;99.90
54680;DHT22;40578;53.178;5.846;2022-09-02T10:49:36;20.90;99.90
54680;DHT22;40578;53.178;5.846;2022-09-02T10:55:11;21.10;99.90
54680;DHT22;40578;53.178;5.846;2022-09-02T10:57:53;21.10;99.90
54680;DHT22;40578;53.178;5.846;2022-09-02T11:00:20;21.10;99.90
54680;DHT22;40578;53.178;5.846;2022-09-02T11:05:45;21.10;99.90
54680;DHT22;40578;53.178;5.846;2022-09-02T11:08:31;21.20;99.90
54680;DHT22;40578;53.178;5.846;2022-09-02T11:13:55;21.40;99.90
54680;DHT22;40578;53.178;5.846;2022-09-02T11:16:40;21.40;99.90
54680;DHT22;40578;53.178;5.846;2022-09-02T11:19:15;21.50;99.90
54680;DHT22;40578;53.178;5.846;2022-09-02T11:21:50;21.60;99.90
54680;DHT22;40578;53.178;5.846;2022-09-02T11:24:37;21.60;99.90
54680;DHT22;40578;53.178;5.846;2022-09-02T11:27:11;21.70;99.90
54680;DHT22;40578;53.178;5.846;2022-09-02T11:29:57;21.70;99.90
54680;DHT22;40578;53.178;5.846;2022-09-02T11:35:05;21.90;99.90
54680;DHT22;40578;53.178;5.846;2022-09-02T11:37:42;22.00;99.90
54680;DHT22;40578;53.178;5.846;2022-09-02T11:53:51;22.40;99.90
54680;DHT22;40578;53.178;5.846;2022-09-02T11:56:26;22.60;95.80
54680;DHT22;40578;53.178;5.846;2022-09-02T11:58:53;22.60;91.30
54680;DHT22;40578;53.178;5.846;2022-09-02T12:04:06;22.60;99.90
54680;DHT22;40578;53.178;5.846;2022-09-02T12:09:45;22.60;99.90
54680;DHT22;40578;53.178;5.846;2022-09-02T12:17:39;22.90;44.50
54680;DHT22;40578;53.178;5.846;2022-09-02T12:21:01;22.90;64.20
54680;DHT22;40578;53.178;5.846;2022-09-02T12:22:55;22.90;69.10
54680;DHT22;40578;53.178;5.846;2022-09-02T12:28:09;23.20;47.30
54680;DHT22;40578;53.178;5.846;2022-09-02T12:33:40;23.40;1.00
54680;DHT22;40578;53.178;5.846;2022-09-02T12:36:08;23.30;1.00
54680;DHT22;40578;53.178;5.846;2022-09-02T12:38:39;23.40;1.00
54680;DHT22;40578;53.178;5.846;2022-09-02T12:43:45;23.50;1.00
54680;DHT22;40578;53.178;5.846;2022-09-02T12:46:44;23.50;1.00
54680;DHT22;40578;53.178;5.846;2022-09-02T12:52:37;23.40;1.00
54680;DHT22;40578;53.178;5.846;2022-09-02T12:57:48;23.60;1.00
54680;DHT22;40578;53.178;5.846;2022-09-02T13:05:55;23.80;1.00
54680;DHT22;40578;53.178;5.846;2022-09-02T13:16:58;23.80;1.00
54680;DHT22;40578;53.178;5.846;2022-09-02T13:19:48;23.80;1.00
54680;DHT22;40578;53.178;5.846;2022-09-02T13:31:09;24.10;1.00
54680;DHT22;40578;53.178;5.846;2022-09-02T13:33:37;24.20;1.00
54680;DHT22;40578;53.178;5.846;2022-09-02T13:36:03;24.30;1.00
54680;DHT22;40578;53.178;5.846;2022-09-02T13:38:29;24.40;1.00
54680;DHT22;40578;53.178;5.846;2022-09-02T13:40:57;24.40;1.00
54680;DHT22;40578;53.178;5.846;2022-09-02T13:43:25;24.30;1.00
54680;DHT22;40578;53.178;5.846;2022-09-02T13:45:53;24.40;1.00
54680;DHT22;40578;53.178;5.846;2022-09-02T13:48:24;24.50;1.00
54680;DHT22;40578;53.178;5.846;2022-09-02T13:50:52;24.70;1.00
54680;DHT22;40578;53.178;5.846;2022-09-02T13:55:52;24.70;1.00
54680;DHT22;40578;53.178;5.846;2022-09-02T14:00:46;24.70;1.00
54680;DHT22;40578;53.178;5.846;2022-09-02T14:03:18;24.70;1.00
54680;DHT22;40578;53.178;5.846;2022-09-02T14:05:47;24.70;1.00
54680;DHT22;40578;53.178;5.846;2022-09-02T14:08:32;24.70;1.00
54680;DHT22;40578;53.178;5.846;2022-09-02T14:10:58;24.60;1.00
54680;DHT22;40578;53.178;5.846;2022-09-02T14:13:27;24.50;1.00
54680;DHT22;40578;53.178;5.846;2022-09-02T14:15:52;24.70;1.00
54680;DHT22;40578;53.178;5.846;2022-09-02T14:18:20;24.70;1.00
54680;DHT22;40578;53.178;5.846;2022-09-02T14:23:23;24.50;1.00
54680;DHT22;40578;53.178;5.846;2022-09-02T14:25:57;24.60;1.00
54680;DHT22;40578;53.178;5.846;2022-09-02T14:28:26;24.50;1.00
54680;DHT22;40578;53.178;5.846;2022-09-02T14:33:45;24.60;1.00
54680;DHT22;40578;53.178;5.846;2022-09-02T14:41:21;24.60;1.00
54680;DHT22;40578;53.178;5.846;2022-09-02T14:43:56;24.70;1.00
54680;DHT22;40578;53.178;5.846;2022-09-02T14:46:47;24.70;1.00
54680;DHT22;40578;53.178;5.846;2022-09-02T14:49:55;24.70;1.00
54680;DHT22;40578;53.178;5.846;2022-09-02T14:52:23;24.80;1.00
54680;DHT22;40578;53.178;5.846;2022-09-02T14:54:51;24.80;1.00
54680;DHT22;40578;53.178;5.846;2022-09-02T14:57:34;24.80;1.00
54680;DHT22;40578;53.178;5.846;2022-09-02T15:00:11;24.80;1.00
54680;DHT22;40578;53.178;5.846;2022-09-02T15:02:44;24.60;1.00
54680;DHT22;40578;53.178;5.846;2022-09-02T15:05:13;24.60;1.00
54680;DHT22;40578;53.178;5.846;2022-09-02T15:07:39;24.50;1.00
54680;DHT22;40578;53.178;5.846;2022-09-02T15:10:06;24.50;1.00
54680;DHT22;40578;53.178;5.846;2022-09-02T15:12:43;24.50;1.00
54680;DHT22;40578;53.178;5.846;2022-09-02T15:15:10;24.50;1.00
54680;DHT22;40578;53.178;5.846;2022-09-02T15:17:36;24.60;1.00
54680;DHT22;40578;53.178;5.846;2022-09-02T15:20:02;24.60;1.00
54680;DHT22;40578;53.178;5.846;2022-09-02T15:22:28;24.60;1.00
54680;DHT22;40578;53.178;5.846;2022-09-02T15:24:53;24.60;1.00
54680;DHT22;40578;53.178;5.846;2022-09-02T15:27:19;24.60;1.00
54680;DHT22;40578;53.178;5.846;2022-09-02T15:29:45;24.70;1.00
54680;DHT22;40578;53.178;5.846;2022-09-02T15:32:10;24.70;1.00
54680;DHT22;40578;53.178;5.846;2022-09-02T15:34:36;24.70;1.00
54680;DHT22;40578;53.178;5.846;2022-09-02T15:37:02;24.70;1.00
54680;DHT22;40578;53.178;5.846;2022-09-02T15:39:28;24.70;1.00
54680;DHT22;40578;53.178;5.846;2022-09-02T15:41:54;24.80;1.00
54680;DHT22;40578;53.178;5.846;2022-09-02T15:44:21;24.80;1.00
54680;DHT22;40578;53.178;5.846;2022-09-02T15:46:51;24.80;1.00
54680;DHT22;40578;53.178;5.846;2022-09-02T15:49:17;24.90;1.00
54680;DHT22;40578;53.178;5.846;2022-09-02T15:51:44;24.90;1.00
54680;DHT22;40578;53.178;5.846;2022-09-02T15:54:12;24.80;1.00
54680;DHT22;40578;53.178;5.846;2022-09-02T15:56:40;24.80;1.00
54680;DHT22;40578;53.178;5.846;2022-09-02T15:59:09;24.80;1.00
54680;DHT22;40578;53.178;5.846;2022-09-02T16:01:37;24.70;1.00
54680;DHT22;40578;53.178;5.846;2022-09-02T16:04:05;24.70;1.00
54680;DHT22;40578;53.178;5.846;2022-09-02T16:06:31;24.70;1.00
54680;DHT22;40578;53.178;5.846;2022-09-02T16:08:58;24.60;1.00
54680;DHT22;40578;53.178;5.846;2022-09-02T16:11:24;24.60;1.00
54680;DHT22;40578;53.178;5.846;2022-09-02T16:13:50;24.60;1.00
54680;DHT22;40578;53.178;5.846;2022-09-02T16:16:16;24.50;1.00
54680;DHT22;40578;53.178;5.846;2022-09-02T16:18:43;24.50;1.00
54680;DHT22;40578;53.178;5.846;2022-09-02T16:21:09;24.50;1.00
54680;DHT22;40578;53.178;5.846;2022-09-02T16:23:36;24.40;1.00
54680;DHT22;40578;53.178;5.846;2022-09-02T16:26:09;24.30;1.00
54680;DHT22;40578;53.178;5.846;2022-09-02T16:28:36;24.30;1.00
54680;DHT22;40578;53.178;5.846;2022-09-02T16:31:02;24.20;1.00
54680;DHT22;40578;53.178;5.846;2022-09-02T16:33:28;24.20;1.00
54680;DHT22;40578;53.178;5.846;2022-09-02T16:35:53;24.20;1.00
54680;DHT22;40578;53.178;5.846;2022-09-02T16:38:19;24.20;1.00
54680;DHT22;40578;53.178;5.846;2022-09-02T16:40:52;24.20;1.00
54680;DHT22;40578;53.178;5.846;2022-09-02T16:43:19;24.20;1.00
54680;DHT22;40578;53.178;5.846;2022-09-02T16:45:48;24.10;1.00
54680;DHT22;40578;53.178;5.846;2022-09-02T16:48:21;24.10;1.00
54680;DHT22;40578;53.178;5.846;2022-09-02T16:50:48;24.00;1.00
54680;DHT22;40578;53.178;5.846;2022-09-02T16:53:15;24.00;1.00
54680;DHT22;40578;53.178;5.846;2022-09-02T16:55:43;24.20;1.00
54680;DHT22;40578;53.178;5.846;2022-09-02T16:58:09;24.30;1.00
54680;DHT22;40578;53.178;5.846;2022-09-02T17:00:37;24.30;1.00
54680;DHT22;40578;53.178;5.846;2022-09-02T17:03:11;24.30;1.00
54680;DHT22;40578;53.178;5.846;2022-09-02T17:05:38;24.20;1.00
54680;DHT22;40578;53.178;5.846;2022-09-02T17:08:05;24.10;1.00
54680;DHT22;40578;53.178;5.846;2022-09-02T17:10:32;24.00;1.00
54680;DHT22;40578;53.178;5.846;2022-09-02T17:12:58;23.90;1.00
54680;DHT22;40578;53.178;5.846;2022-09-02T17:15:26;23.90;1.00
54680;DHT22;40578;53.178;5.846;2022-09-02T17:17:52;23.80;1.00
54680;DHT22;40578;53.178;5.846;2022-09-02T17:20:18;23.60;1.00
54680;DHT22;40578;53.178;5.846;2022-09-02T17:22:44;23.40;1.00
54680;DHT22;40578;53.178;5.846;2022-09-02T17:25:10;23.20;1.00
54680;DHT22;40578;53.178;5.846;2022-09-02T17:27:36;23.10;1.00
54680;DHT22;40578;53.178;5.846;2022-09-02T17:30:04;22.90;1.00
54680;DHT22;40578;53.178;5.846;2022-09-02T17:32:30;22.80;5.10
54680;DHT22;40578;53.178;5.846;2022-09-02T17:34:56;22.60;13.90
54680;DHT22;40578;53.178;5.846;2022-09-02T17:37:22;22.60;35.10
54680;DHT22;40578;53.178;5.846;2022-09-02T17:39:48;22.40;52.30
54680;DHT22;40578;53.178;5.846;2022-09-02T17:42:14;22.30;63.40
54680;DHT22;40578;53.178;5.846;2022-09-02T17:44:40;22.20;70.40